Terminal Aerodrome Forecast
Issued by NWS Cleveland, OH

Home | Current Version | Previous Version | Graphics & Text | Print | Product List | Glossary On
Versions: 1 2 3 4 5 6 7 8 9 10 11 12 13 14 15
000
FTUS41 KCLE 081500 AAB
TAFYNG
TAF AMD
KYNG 081555Z 0816/0912 21010KT 6SM BR BKN012 OVC030
      TEMPO 0818/0820 25010G20KT 2SM -TSRA BR OVC012CB
     FM082200 25010KT P6SM SCT025 OVC035
     FM090300 26009KT P6SM SCT100 BKN250=

USA.gov is the U.S. government's official web portal to all federal, state and local government web resources and services.